Date,TemperatureHighF,TemperatureAvgF,TemperatureLowF,DewpointHighF,DewpointAvgF,DewpointLowF,HumidityHigh,HumidityAvg,HumidityLow,PressureMaxIn,PressureMinIn,WindSpeedMaxMPH,WindSpeedAvgMPH,GustSpeedMaxMPH,PrecipitationSumIn
2012-1-1,79,69,61,64,60,56,92,74,46,30.37,30.26,9,1,10,0.00
2012-1-2,77,65,54,64,56,33,93,73,38,30.29,30.14,21,4,24,0.00
2012-1-3,54,49,42,42,26,6,69,44,16,30.46,30.26,26,5,26,0.00
2012-1-4,65,52,40,50,38,23,69,59,48,30.49,30.36,13,4,15,0.00
2012-1-5,68,56,46,43,34,13,78,47,14,30.40,30.28,12,2,12,0.00
2012-1-6,70,58,47,54,48,42,88,72,48,30.34,30.24,12,1,12,0.00
2012-1-7,74,62,51,56,52,48,92,70,41,30.31,30.22,10,1,10,0.00
2012-1-8,128,66,54,60,55,44,92,70,47,30.34,30.26,12,2,13,0.00
2012-1-9,77,71,64,61,59,52,81,66,44,30.32,30.20,13,4,15,0.00
2012-1-10,78,68,58,63,58,55,92,72,49,30.22,30.09,10,1,11,0.00
2012-1-11,76,69,61,66,63,58,92,81,66,30.10,29.91,18,3,23,0.00
2012-1-12,77,72,67,65,63,58,91,73,56,30.09,29.95,14,5,14,0.00
2012-1-13,73,67,62,62,58,49,87,74,61,30.27,30.08,12,2,15,0.00
2012-1-14,62,56,52,50,42,35,68,59,49,30.45,30.26,16,3,16,0.00
2012-1-15,68,57,44,46,39,25,72,53,29,30.54,30.43,13,2,16,0.00
2012-1-16,72,66,57,56,51,43,70,58,50,30.52,30.41,18,6,22,0.00
2012-1-17,78,71,62,61,58,52,83,63,48,30.41,30.27,16,3,19,0.00
2012-1-18,80,69,59,65,60,54,91,73,42,30.27,30.07,12,2,14,0.00
2012-1-19,73,67,59,61,56,50,90,69,48,30.25,30.10,16,4,18,0.00
2012-1-20,76,66,54,59,54,50,91,66,44,30.31,30.22,14,3,14,0.00
2012-1-21,78,70,59,61,58,54,86,65,49,30.27,30.15,14,3,16,0.00
2012-1-22,78,69,58,64,60,54,90,73,48,30.24,30.15,12,3,13,0.00
2012-1-23,77,72,68,66,64,63,87,77,64,30.23,30.18,15,3,15,0.06
2012-1-24,79,73,67,69,65,60,92,78,58,30.28,30.19,15,4,16,0.14
2012-1-25,78,74,72,68,65,63,80,73,64,30.29,30.19,16,6,16,0.01
2012-1-26,79,75,71,68,65,63,86,72,61,30.20,30.09,18,6,19,0.00
2012-1-27,84,76,70,69,65,60,83,70,48,30.16,30.04,15,4,18,0.01
2012-1-28,80,72,68,66,64,60,89,76,51,30.26,30.15,8,1,10,0.00
2012-1-29,75,71,68,63,60,56,77,68,58,30.36,30.22,14,3,14,0.01
2012-1-30,75,71,69,59,57,55,68,61,52,30.41,30.30,21,7,22,0.00
2012-1-31,75,71,68,62,58,49,72,64,54,30.43,30.33,16,6,18,0.00
2012-2-1,78,73,70,66,63,60,87,70,60,30.35,30.24,14,5,15,0.04
2012-2-2,72,69,66,68,66,58,93,89,63,30.27,30.19,16,2,18,0.01
2012-2-3,77,73,69,66,64,62,84,72,63,30.31,30.21,20,7,22,0.00
2012-2-4,77,73,71,68,65,62,85,75,67,30.28,30.17,22,8,22,0.00
2012-2-5,80,74,69,68,67,62,90,78,62,30.18,30.07,13,2,15,0.00
2012-2-6,79,73,68,70,68,66,94,85,71,30.17,30.08,16,3,19,0.00
2012-2-7,82,74,71,71,69,67,92,83,64,30.14,30.02,10,2,12,0.00
2012-2-8,77,71,68,69,66,62,93,85,69,30.16,30.07,10,3,14,0.00
2012-2-9,76,72,68,67,64,61,84,75,65,30.20,30.10,19,6,19,0.00
2012-2-10,78,73,70,72,68,65,94,86,77,30.17,29.98,15,4,19,0.00
2012-2-11,70,66,54,67,57,44,95,75,48,30.18,29.97,23,7,27,0.01
2012-2-12,59,52,45,45,40,32,81,65,53,30.36,30.18,20,6,20,0.00
2012-2-13,69,59,47,53,47,42,88,66,45,30.34,30.23,14,4,16,0.00
2012-2-14,75,68,57,60,56,52,87,66,51,30.25,30.17,15,3,16,0.00
2012-2-15,80,71,61,65,61,57,90,71,49,30.31,30.22,13,2,14,0.00
2012-2-16,80,75,69,65,63,59,82,68,53,30.29,30.18,16,4,16,0.00
2012-2-17,82,74,66,68,65,62,91,75,52,30.20,30.08,12,2,13,0.00
2012-2-18,80,74,66,68,65,62,91,75,56,30.13,30.01,13,3,14,0.00
2012-2-19,86,76,68,70,66,61,90,74,49,30.06,29.92,24,6,24,0.00
2012-2-20,73,67,60,62,56,53,81,68,50,30.27,30.03,17,5,20,0.00
2012-2-21,76,71,66,59,55,52,70,58,47,30.31,30.23,15,5,16,0.00
2012-2-22,80,71,62,64,61,57,88,70,48,30.23,30.05,14,3,16,0.00
2012-2-23,87,74,64,68,63,59,92,70,42,30.10,30.00,15,3,15,0.00
2012-2-24,86,76,67,72,67,61,93,75,44,30.15,30.05,16,4,19,0.00
2012-2-25,77,71,68,71,64,60,95,79,63,30.30,30.12,16,4,19,0.00
2012-2-26,75,72,69,67,64,60,79,75,71,30.37,30.28,21,8,22,0.00
2012-2-27,82,76,72,70,67,65,83,75,60,30.37,30.30,18,7,19,0.00
2012-2-28,80,76,73,69,68,64,84,75,61,30.35,30.27,14,5,15,0.00
2012-2-29,81,75,71,71,68,66,90,78,63,30.32,30.20,13,4,15,0.03
2012-3-1,81,75,69,70,68,66,91,79,62,30.23,30.10,17,2,19,0.00
2012-3-2,83,75,67,71,67,63,92,76,54,30.16,30.07,17,4,19,0.00
2012-3-3,84,78,73,71,68,65,84,74,54,30.09,29.96,21,6,22,0.00
2012-3-4,80,69,56,72,55,35,91,64,29,30.29,29.92,36,6,36,0.00
2012-3-5,72,62,53,53,46,35,74,56,44,30.44,30.28,17,4,18,0.00
2012-3-6,76,69,57,62,55,48,83,61,46,30.47,30.37,26,9,28,0.00
2012-3-7,76,72,69,66,61,54,80,68,58,30.46,30.36,23,10,25,0.01
2012-3-8,78,74,70,68,66,64,91,77,67,30.37,30.26,24,8,24,0.10
2012-3-9,81,76,73,68,66,64,80,72,60,30.30,30.19,16,5,18,0.00
2012-3-10,82,74,70,68,66,61,88,75,50,30.29,30.17,14,4,18,0.00
2012-3-11,80,74,70,69,65,62,90,75,54,30.37,30.26,27,8,27,0.00
2012-3-12,77,73,70,64,61,54,79,66,46,30.39,30.28,19,8,21,0.00
2012-3-13,79,73,68,61,58,57,68,60,48,30.33,30.26,15,4,21,0.00
2012-3-14,78,74,71,65,62,58,77,66,53,30.31,30.22,18,5,18,0.00
2012-3-15,73,73,72,66,65,63,78,75,73,30.28,30.24,17,8,18,0.00
2012-3-16,80,76,72,64,62,60,71,63,52,30.32,30.23,16,6,16,0.00
2012-3-17,79,74,67,63,61,58,80,64,52,30.32,30.23,16,5,16,0.00
2012-3-18,80,75,70,67,62,59,80,66,57,30.32,30.23,17,6,22,0.00
2012-3-19,79,75,71,65,60,54,74,60,45,30.28,30.18,15,6,22,0.00
2012-3-20,80,75,70,67,63,58,83,66,50,30.22,30.13,19,7,20,0.02
2012-3-21,82,76,70,68,66,58,91,71,48,30.25,30.15,21,8,21,0.21
2012-3-22,81,77,74,67,65,62,77,68,53,30.27,30.18,19,6,21,0.00
2012-3-23,81,76,70,67,63,58,84,64,47,30.23,30.13,17,5,17,0.00
2012-3-24,83,76,67,65,62,58,86,65,45,30.15,30.04,16,3,16,0.00
2012-3-25,82,76,70,67,63,58,84,65,47,30.08,29.89,24,6,24,0.07
2012-3-26,81,72,64,60,55,45,81,57,30,30.10,29.97,14,4,17,0.00
2012-3-27,80,75,69,65,61,56,83,63,51,30.27,30.08,20,6,20,0.03
2012-3-28,80,75,72,66,61,57,80,62,54,30.28,30.17,17,7,20,0.00
2012-3-29,80,74,67,64,60,58,83,63,47,30.19,30.08,12,3,20,0.00
2012-3-30,81,73,64,64,60,57,88,64,47,30.18,30.09,13,3,14,0.00
2012-3-31,84,74,66,70,65,60,90,74,51,30.13,29.95,16,3,21,0.42
2012-4-1,85,75,68,68,65,59,92,74,42,30.05,29.96,12,3,12,0.03
2012-4-2,85,76,68,70,67,61,92,74,45,30.02,29.95,10,2,12,0.00
2012-4-3,87,77,68,68,65,53,86,67,36,30.08,29.99,13,2,13,0.00
2012-4-4,86,78,70,70,66,60,90,70,44,30.09,29.92,16,4,18,0.00
2012-4-5,88,77,70,67,64,56,85,65,34,29.99,29.82,22,5,22,0.00
2012-4-6,88,78,72,72,66,55,91,68,35,30.00,29.82,25,6,28,0.06
2012-4-7,79,74,70,66,61,57,82,64,52,30.21,29.99,20,7,23,0.00
2012-4-8,77,73,69,58,55,52,64,54,44,30.26,30.18,17,6,18,0.00
2012-4-9,80,73,66,61,59,57,79,62,49,30.20,30.10,14,4,18,0.00
2012-4-10,82,74,63,64,58,53,86,60,37,30.18,30.09,13,3,16,0.00
2012-4-11,86,75,66,64,59,50,83,60,30,30.16,30.04,15,3,15,0.00
2012-4-12,81,76,70,66,63,59,75,65,50,30.15,30.04,15,4,17,0.00
2012-4-13,82,75,69,68,65,62,91,73,55,30.22,30.10,16,6,18,0.40
2012-4-14,78,74,68,67,61,57,93,66,51,30.33,30.18,27,9,27,0.00
2012-4-15,80,75,71,61,58,55,68,57,48,30.32,30.25,18,8,27,0.00
2012-4-16,82,77,74,63,58,51,67,52,38,30.31,30.21,20,7,21,0.00
2012-4-17,81,76,73,64,60,54,74,59,43,30.27,30.16,17,6,20,0.00
2012-4-18,81,76,72,65,62,59,72,62,49,30.21,30.07,16,5,20,0.00
2012-4-19,83,77,74,67,66,63,76,67,54,30.11,29.99,18,5,18,0.00
2012-4-20,85,76,68,69,66,63,92,72,49,30.05,29.92,18,4,21,0.01
2012-4-21,77,73,68,70,66,63,94,81,63,30.01,29.78,21,5,22,0.00
2012-4-22,81,74,66,71,64,59,93,73,48,29.84,29.65,23,7,24,0.00
2012-4-23,79,70,63,62,50,42,78,50,31,30.02,29.82,26,8,28,0.00
2012-4-24,75,66,58,49,43,30,69,47,20,30.14,29.99,16,4,19,0.00
2012-4-25,79,68,56,54,50,44,70,53,36,30.22,30.13,13,3,19,0.00
2012-4-26,80,72,61,61,58,54,85,62,43,30.25,30.16,13,3,14,0.00
2012-4-27,82,75,67,69,63,59,84,67,50,30.23,30.15,14,3,14,0.00
2012-4-28,81,75,68,73,68,62,94,81,56,30.19,30.13,14,4,16,0.13
2012-4-29,77,74,72,71,68,65,91,81,68,30.19,30.10,29,8,29,0.00
2012-4-30,77,74,72,70,68,65,89,79,72,30.17,30.10,29,11,29,0.01
2012-5-1,81,76,72,72,69,67,91,78,65,30.18,30.11,21,8,23,0.00
2012-5-2,82,78,75,71,68,66,81,72,60,30.20,30.10,19,8,21,0.00
2012-5-3,83,78,75,70,68,66,79,71,59,30.20,30.13,17,6,20,0.00
2012-5-4,83,78,74,69,66,63,78,67,54,30.20,30.11,16,5,16,0.00
2012-5-5,84,78,73,69,67,63,81,69,50,30.13,30.04,13,4,15,0.00
2012-5-6,88,79,71,70,68,61,89,70,42,30.09,29.98,12,3,15,0.00
2012-5-7,86,78,72,71,68,62,91,72,49,30.03,29.94,16,4,16,0.00
2012-5-8,85,76,70,72,69,66,93,79,57,30.02,29.95,16,2,19,0.00
2012-5-9,87,76,71,74,69,64,91,80,50,30.01,29.89,16,2,19,0.00
2012-5-10,89,78,73,73,70,65,93,79,46,30.00,29.88,16,4,16,0.00
2012-5-11,85,79,73,72,70,68,92,74,59,30.19,29.98,17,6,19,0.00
2012-5-12,78,78,73,70,69,63,78,75,70,30.20,30.16,16,7,17,0.19
2012-5-15,88,80,72,74,70,68,89,73,52,30.13,30.03,14,3,16,0.07
2012-5-16,82,77,72,73,70,66,91,81,62,30.12,30.02,8,1,10,0.01
2012-5-17,84,76,68,72,69,64,94,81,61,30.07,29.95,15,2,26,0.00
2012-5-18,87,77,70,72,68,61,93,74,43,30.04,29.97,14,2,26,0.00
2012-5-19,84,75,70,74,69,66,92,82,61,30.08,29.98,11,1,20,0.00
2012-5-20,85,77,70,73,69,66,92,77,56,30.08,29.99,13,3,14,0.01
2012-5-21,85,79,70,72,68,64,90,70,52,30.08,30.01,14,3,14,0.00
2012-5-22,82,76,72,72,70,68,91,82,67,30.08,30.00,14,2,18,0.00
2012-5-23,85,78,74,73,71,69,88,79,60,30.03,29.95,16,4,18,0.00
2012-5-24,80,76,73,74,71,67,93,84,72,30.00,29.92,16,3,18,0.00
2012-5-25,86,79,71,74,71,67,93,78,53,30.13,29.98,14,3,15,0.01
2012-5-26,85,80,76,73,71,68,89,75,59,30.13,30.05,14,3,15,0.00
2012-5-27,90,78,71,73,70,62,93,78,42,30.07,29.93,21,3,23,0.00
2012-5-28,87,79,72,73,71,69,89,77,58,30.07,29.98,22,4,23,0.00
2012-5-29,88,79,70,76,72,66,93,79,57,30.07,29.98,30,3,32,0.00
2012-5-30,92,82,73,73,70,64,92,69,42,30.05,29.92,16,4,32,0.00
2012-5-31,86,80,76,73,71,66,85,74,57,30.05,29.96,14,3,18,0.00
2012-6-1,83,77,73,75,72,70,91,85,68,30.09,29.97,14,3,16,0.00
2012-6-2,89,82,76,74,71,66,89,71,52,30.07,29.98,16,4,16,0.00
2012-6-3,89,80,73,72,67,61,90,67,41,30.13,30.04,13,3,14,0.00
2012-6-4,80,78,76,68,67,67,74,70,66,30.10,30.03,2,0,3,0.00
2012-6-6,86,84,81,75,72,66,78,68,54,30.06,29.99,11,1,14,0.00
2012-6-7,92,84,80,77,73,67,86,70,48,30.07,30.00,16,3,18,0.00
2012-6-8,87,80,72,76,73,70,93,81,65,30.08,30.00,18,2,18,0.00
2012-6-9,87,80,74,75,73,70,92,79,59,30.13,30.04,17,3,18,0.00
2012-6-10,88,82,77,76,74,72,90,75,60,30.23,30.09,16,4,17,0.00
2012-6-11,86,82,79,73,68,65,77,64,51,30.22,30.14,14,5,16,0.00
2012-6-12,85,81,77,68,66,64,71,61,51,30.18,30.07,13,4,16,0.00
2012-6-13,88,83,75,70,68,64,79,61,47,30.09,29.98,13,4,16,0.00
2012-6-14,90,81,74,76,70,67,88,71,51,30.09,29.99,12,2,16,0.00
2012-6-15,87,80,74,76,72,66,90,78,58,30.12,30.00,15,3,16,0.00
2012-6-16,85,80,73,72,68,64,91,69,56,30.13,30.03,19,5,22,0.00
2012-6-17,85,81,77,67,65,61,67,59,50,30.13,30.04,18,6,22,0.00
2012-6-18,86,81,78,68,65,62,66,58,48,30.15,30.04,19,7,19,0.00
2012-6-19,85,80,77,73,68,64,88,66,54,30.14,30.07,23,9,23,0.06
2012-6-20,82,78,74,74,72,69,92,84,67,30.12,30.04,30,4,30,0.00
2012-6-21,87,80,74,74,72,70,92,77,62,30.10,29.97,17,5,30,0.00
2012-6-22,86,79,74,75,73,71,91,82,63,30.05,29.94,16,3,18,0.00
2012-6-23,85,79,73,75,73,70,92,82,68,30.12,29.95,16,4,18,0.00
2012-6-24,82,79,75,77,74,70,94,85,77,30.09,29.95,20,6,21,0.00
2012-6-25,90,84,81,76,74,67,82,72,49,29.97,29.85,21,7,23,0.00
2012-6-26,91,84,79,75,71,65,83,66,43,29.87,29.80,30,8,32,0.00
2012-6-27,89,82,76,76,73,70,88,75,56,30.10,29.84,26,8,32,0.00
2012-6-28,87,81,72,72,69,66,87,69,55,30.16,30.08,12,3,26,0.00
2012-6-29,90,83,74,73,69,63,85,64,44,30.15,30.04,12,3,12,0.00
2012-6-30,92,84,77,75,71,66,82,67,47,30.10,30.02,13,4,13,0.00
2012-7-1,90,84,78,74,72,67,84,67,49,30.18,30.08,13,4,14,0.00
2012-7-2,92,84,78,75,72,66,84,69,45,30.20,30.09,18,3,19,0.00
2012-7-3,90,84,77,75,72,69,86,70,53,30.17,30.09,14,4,19,0.00
2012-7-4,91,84,78,76,73,68,84,69,50,30.19,30.11,14,4,16,0.00
2012-7-5,90,83,78,75,72,68,83,71,55,30.16,30.07,15,3,17,0.06
2012-7-6,90,83,76,76,72,69,88,70,55,30.15,30.10,14,4,15,0.01
2012-7-7,89,84,80,75,73,69,81,68,54,30.19,30.12,18,4,18,0.00
2012-7-8,88,84,79,75,73,70,84,71,57,30.18,30.11,13,4,16,0.00
2012-7-9,89,83,77,75,73,70,87,71,57,30.15,30.06,14,3,14,0.00
2012-7-10,89,82,74,75,72,66,88,73,56,30.14,30.04,20,4,22,0.16
2012-7-11,84,78,73,74,72,68,92,82,59,30.17,30.05,15,2,22,0.00
2012-7-12,79,78,77,72,71,69,80,79,77,30.12,30.07,8,1,14,0.00
2012-7-13,88,85,82,73,71,68,72,63,55,30.15,30.08,17,7,18,0.00
2012-7-14,88,83,78,75,71,68,83,68,55,30.18,30.08,18,6,19,0.00
2012-7-15,90,80,74,74,71,65,91,76,46,30.21,30.13,16,3,19,0.00
2012-7-16,85,77,72,75,72,69,92,84,63,30.21,30.09,19,2,19,0.00
2012-7-17,91,78,74,76,73,69,91,84,50,30.15,30.07,18,2,19,0.00
2012-7-18,90,82,73,76,72,68,89,73,50,30.23,30.10,17,3,19,0.00
2012-7-19,90,84,78,77,74,70,88,72,54,30.28,30.19,13,3,18,0.00
2012-7-20,89,84,80,75,74,72,80,70,58,30.24,30.14,15,5,17,0.00
2012-7-21,90,85,82,76,74,73,79,71,58,30.21,30.13,14,6,15,0.00
2012-7-22,88,81,75,76,74,70,91,79,66,30.24,30.14,17,4,18,0.00
2012-7-23,86,81,74,76,73,69,90,78,59,30.27,30.19,18,4,20,0.00
2012-7-24,91,82,72,77,74,64,85,76,57,30.24,30.11,31,3,31,0.00
2012-7-25,92,84,76,76,73,70,88,71,52,30.16,30.08,11,3,31,0.00
2012-7-26,90,81,77,74,72,69,86,76,51,30.14,30.08,10,1,14,0.00
2012-7-31,91,86,80,72,70,64,71,59,43,30.13,30.05,14,5,16,0.00
2012-8-1,92,83,75,75,71,66,82,69,45,30.12,30.02,19,2,21,0.02
2012-8-2,93,85,78,76,73,68,88,70,49,30.10,30.01,15,3,16,0.00
2012-8-3,89,82,75,77,74,69,89,77,61,30.12,30.02,25,2,28,0.04
2012-8-4,89,83,77,77,74,70,90,75,56,30.16,30.04,18,4,28,0.00
2012-8-5,90,85,80,76,74,70,81,69,58,30.19,30.11,15,6,18,0.00
2012-8-6,88,81,74,76,74,71,90,79,60,30.17,30.08,18,4,18,0.00
2012-8-7,90,84,75,77,74,70,92,73,54,30.16,30.06,15,3,18,0.00
2012-8-8,91,85,81,75,73,71,79,68,55,30.15,30.08,11,3,15,0.00
2012-8-9,90,85,82,75,74,71,76,68,57,30.13,30.02,14,4,14,0.00
2012-8-10,89,82,78,75,72,69,84,73,54,30.10,30.02,16,3,21,0.00
2012-8-11,89,80,74,77,73,69,92,80,55,30.14,30.04,20,3,21,0.00
2012-8-12,92,80,75,78,74,70,93,83,51,30.16,30.08,18,2,20,0.00
2012-8-13,90,83,76,80,75,72,93,77,57,30.17,30.08,12,2,14,0.00
2012-8-14,92,84,79,78,74,71,87,72,51,30.16,30.06,13,1,13,0.00
2012-8-15,93,85,79,77,74,71,85,70,52,30.15,30.08,13,2,14,0.00
2012-8-16,89,84,81,75,74,72,81,72,60,30.16,30.09,10,1,14,0.00
2012-8-17,93,82,76,75,72,64,86,74,44,30.16,30.02,20,1,23,0.00
2012-8-18,95,81,76,75,72,64,88,75,37,30.11,30.02,15,2,23,0.00
2012-8-19,93,85,78,75,73,68,85,70,47,30.11,30.01,17,2,17,0.00
2012-8-20,91,84,79,76,72,66,85,68,46,30.12,30.01,20,3,24,0.00
2012-8-21,93,82,74,75,71,66,88,71,44,30.19,30.07,25,2,26,0.00
2012-8-22,92,81,74,76,72,68,90,75,56,30.20,30.11,15,1,26,0.00
2012-8-23,91,84,76,77,72,70,87,70,52,30.18,30.11,12,3,15,0.00
2012-8-24,89,81,72,76,71,65,90,73,55,30.16,30.02,27,4,32,0.00
2012-8-25,86,79,71,76,72,68,92,80,68,30.10,29.99,19,4,22,0.00
2012-8-26,84,80,75,77,74,70,93,84,65,30.00,29.83,34,10,36,0.00
2012-8-27,85,81,74,78,76,71,95,84,69,30.05,29.85,27,10,36,0.00
2012-8-28,90,83,77,78,75,69,91,79,61,30.12,30.02,20,5,35,0.00
2012-8-29,90,84,79,76,74,69,89,74,54,30.11,30.02,15,4,20,0.00
2012-8-30,90,84,78,76,74,69,87,72,52,30.20,30.06,13,3,17,0.00
2012-8-31,89,84,78,77,74,71,87,74,55,30.24,30.16,11,3,12,0.00
2012-9-1,88,83,79,76,74,69,85,73,59,30.21,30.12,17,4,18,0.00
2012-9-2,87,82,76,71,68,65,78,63,51,30.15,30.07,15,3,18,0.00
2012-9-3,89,82,75,74,70,65,86,69,49,30.15,30.07,15,3,17,0.00
2012-9-4,87,81,74,73,70,61,84,70,55,30.13,30.03,22,3,24,0.00
2012-9-5,90,80,72,73,70,64,87,75,49,30.12,30.02,24,3,24,0.00
2012-9-6,89,79,74,76,70,65,88,74,50,30.13,30.06,18,2,24,0.00
2012-9-7,90,80,72,75,72,67,91,77,49,30.10,30.01,24,2,26,0.00
2012-9-8,93,83,76,74,71,61,86,69,36,30.08,29.98,14,2,26,0.00
2012-9-9,93,84,77,74,71,65,87,65,41,30.07,29.97,18,5,22,0.00
2012-9-10,90,81,76,76,73,70,90,79,55,30.10,30.02,21,3,22,0.00
2012-9-11,88,81,76,79,74,71,92,80,65,30.16,30.07,21,4,21,0.00
2012-9-12,87,83,76,74,71,68,88,69,57,30.16,30.08,22,7,26,0.00
2012-9-13,86,82,75,74,71,69,88,70,59,30.16,30.07,22,7,26,0.00
2012-9-14,87,82,75,75,72,70,87,73,59,30.12,30.05,17,4,17,0.00
2012-9-15,86,80,74,77,72,68,89,76,62,30.14,30.07,18,4,18,0.00
2012-9-16,86,82,80,73,71,70,75,70,62,30.15,30.05,13,4,14,0.00
2012-9-17,86,82,79,74,72,69,81,73,63,30.13,30.01,16,4,16,0.00
2012-9-18,93,83,75,76,72,68,91,72,46,30.09,29.97,18,3,18,0.00
2012-9-19,90,81,75,75,73,69,91,78,54,30.17,30.00,10,2,18,0.01
2012-9-20,87,81,74,76,72,69,89,73,57,30.16,30.02,13,2,14,6.10
2012-9-21,87,80,74,75,72,68,90,77,55,30.08,29.99,12,1,13,5.80
2012-9-22,78,75,74,74,71,70,91,89,87,30.08,30.02,8,1,10,2.80
2012-9-25,87,83,80,73,71,70,77,67,58,30.17,30.08,13,4,13,0.00
2012-9-26,86,82,77,74,72,68,79,70,60,30.18,30.10,10,2,11,0.00
2012-9-27,88,83,78,76,73,69,86,73,56,30.18,30.07,14,2,15,0.30
2012-9-28,86,81,77,75,73,71,88,78,64,30.12,30.02,10,1,15,0.40
2012-9-29,89,82,76,78,73,70,91,77,56,30.07,29.95,13,2,13,0.00
2012-9-30,88,82,76,77,72,69,89,73,55,30.00,29.88,15,3,15,0.00
2012-10-1,88,81,75,75,73,70,91,77,57,29.97,29.86,20,4,20,5.70
2012-10-2,88,78,74,77,73,71,92,85,64,30.16,29.95,19,3,24,18.20
2012-10-3,89,82,75,78,75,72,92,79,59,30.26,30.14,12,3,24,0.00
2012-10-4,89,84,78,77,75,72,87,75,60,30.26,30.15,15,3,15,3.80
2012-10-5,88,84,81,76,74,71,82,72,58,30.20,30.02,11,4,12,0.20
2012-10-6,90,81,74,75,73,68,89,75,56,30.08,29.94,11,2,14,7.70
2012-10-7,86,79,73,77,73,68,92,82,64,30.07,29.97,12,2,12,0.10
2012-10-8,88,83,79,75,73,69,82,73,59,30.10,30.00,14,2,14,0.10
2012-10-9,88,82,76,75,73,68,90,76,54,30.12,30.03,12,2,14,0.00
2012-10-10,86,81,78,76,72,68,88,75,63,30.16,30.07,15,3,17,0.20
2012-10-11,80,79,78,69,68,67,69,68,68,30.15,30.13,8,2,17,0.00
2012-10-22,84,81,78,67,64,60,65,58,46,30.11,30.05,20,8,22,0.00
2012-10-23,84,79,73,71,66,58,91,63,50,30.10,30.02,22,8,24,1.40
2012-10-24,84,80,73,72,69,65,90,69,54,30.07,29.95,23,9,25,0.00
2012-10-25,81,79,72,73,70,65,88,73,66,29.95,29.76,33,9,34,2.20
2012-10-26,80,75,70,71,68,64,94,78,62,29.76,29.55,28,8,32,10.30
2012-10-27,78,73,69,67,62,60,88,70,56,29.78,29.55,31,10,32,2.80
2012-10-28,80,72,66,64,60,54,85,67,48,29.88,29.75,24,8,31,0.00
2012-10-29,71,64,57,55,46,36,75,55,29,29.96,29.84,22,8,22,0.00
2012-10-30,72,61,54,49,44,38,79,55,37,30.09,29.92,22,5,22,0.00
2012-10-31,72,63,53,55,50,42,92,64,39,30.17,30.06,16,2,22,0.00
2012-11-1,80,68,56,61,57,53,92,70,42,30.16,30.04,14,3,18,0.00
2012-11-2,80,70,62,63,55,42,92,63,27,30.18,30.10,11,2,14,0.00
2012-11-3,80,69,58,62,57,48,88,67,35,30.23,30.14,11,1,11,0.00
2012-11-4,82,71,61,66,61,58,92,72,46,30.21,30.10,11,1,11,0.00
2012-11-5,79,71,66,63,61,55,87,71,47,30.11,30.01,9,2,11,0.00
2012-11-6,82,73,66,66,60,54,91,68,38,30.03,29.90,20,4,20,0.00
2012-11-7,70,65,59,63,53,47,92,67,49,30.09,29.93,22,5,26,0.00
2012-11-8,70,62,56,52,45,36,78,56,32,30.21,30.06,20,4,20,0.00
2012-11-9,75,67,58,58,53,49,82,62,44,30.30,30.19,16,4,18,0.00
2012-11-10,75,72,70,58,54,50,60,52,45,30.36,30.26,19,6,21,0.00
2012-11-11,80,76,73,63,58,51,66,55,40,30.34,30.27,25,9,25,0.00
2012-11-12,80,77,74,66,64,62,73,66,57,30.29,30.21,24,9,25,0.00
2012-11-13,80,76,73,65,64,62,72,65,56,30.23,30.13,14,5,15,0.00
2012-11-14,80,75,69,68,64,60,88,69,57,30.21,30.14,16,4,17,0.00
2012-11-15,81,73,66,67,64,58,89,74,48,30.19,30.12,14,3,14,0.00
2012-11-16,67,65,65,63,63,62,93,91,89,30.16,30.14,10,3,10,0.00
2012-11-19,72,65,60,59,58,57,90,79,63,30.21,30.11,14,4,14,0.00
2012-11-20,76,66,59,64,60,57,94,83,65,30.12,30.01,15,4,16,0.00
2012-11-21,76,66,60,61,57,51,92,73,47,30.12,30.01,15,4,17,0.00
2012-11-22,74,64,57,55,51,49,79,63,47,30.20,30.08,18,6,21,0.00
2012-11-23,77,65,57,56,53,50,83,68,45,30.23,30.13,13,3,15,0.00
2012-11-24,75,63,53,55,51,47,84,67,39,30.20,30.08,18,3,19,0.00
2012-11-25,78,66,54,59,56,52,93,73,44,30.23,30.14,10,2,10,0.00
2012-11-26,79,70,63,65,60,58,90,73,50,30.29,30.20,14,2,14,0.00
2012-11-27,80,75,70,64,62,60,79,64,50,30.28,30.17,13,4,14,0.00
2012-11-28,79,71,65,66,64,57,91,79,49,30.28,30.18,13,2,15,1.30
2012-11-29,77,73,64,66,61,56,92,68,54,30.30,30.23,22,7,22,0.10
2012-11-30,76,73,71,62,60,56,70,63,55,30.32,30.22,22,8,26,0.00
2012-12-1,78,74,72,63,61,58,71,63,53,30.29,30.22,19,7,19,0.00
2012-12-2,79,75,73,64,62,60,71,65,58,30.33,30.24,20,8,21,0.00
2012-12-3,77,74,72,64,59,49,73,60,43,30.34,30.26,17,7,21,0.00
2012-12-4,77,74,71,62,58,50,74,59,46,30.33,30.24,18,6,19,0.00
2012-12-5,80,75,72,64,61,58,72,64,50,30.25,30.12,14,5,15,0.00
2012-12-6,79,75,70,68,65,61,87,73,57,30.12,29.99,18,4,22,0.00
2012-12-7,81,74,66,70,65,63,92,76,58,30.08,30.00,14,2,15,0.00
2012-12-8,81,75,67,72,68,64,92,78,62,30.13,30.05,15,3,15,0.00
2012-12-9,82,76,70,73,71,67,92,84,66,30.18,30.08,11,2,13,0.00
2012-12-10,84,77,69,74,71,66,92,83,68,30.12,29.99,17,4,18,0.00
2012-12-11,85,78,72,75,72,68,92,83,64,30.16,30.00,14,4,17,0.80
2012-12-12,73,72,72,71,70,69,94,93,92,30.15,30.12,0,0,0,0.10
2012-12-18,83,78,70,69,65,62,94,65,51,30.10,30.00,16,4,16,0.00
2012-12-19,81,72,60,65,60,54,84,69,40,30.18,30.09,11,2,12,0.00
2012-12-20,81,75,71,66,64,59,82,68,50,30.18,30.05,14,4,17,0.00
2012-12-21,71,62,50,66,41,28,86,49,26,30.26,30.05,22,6,22,0.00
2012-12-22,66,54,44,37,30,20,62,42,19,30.34,30.25,15,4,17,0.00
2012-12-23,71,60,49,55,45,34,76,59,44,30.33,30.23,11,2,12,0.00
2012-12-24,76,66,57,59,56,51,85,69,48,30.24,30.08,16,2,16,0.00
2012-12-25,78,69,59,63,59,56,91,72,51,30.14,30.02,14,3,16,0.00
2012-12-26,83,75,63,69,65,58,89,73,52,30.07,29.90,24,7,24,0.00
2012-12-27,71,60,52,58,49,41,90,69,34,30.17,30.06,13,2,15,0.00
2012-12-28,76,68,54,69,62,50,89,81,63,30.18,30.06,12,3,14,0.00
2012-12-29,81,75,61,72,68,53,89,78,63,30.19,30.00,21,6,21,0.00
2012-12-30,68,60,49,55,50,45,86,70,59,30.39,30.19,18,6,19,0.00
2012-12-31,73,70,66,60,56,52,67,62,55,30.41,30.28,18,7,18,0.00
2013-1-1,78,72,66,61,59,56,76,63,53,30.29,30.14,18,3,21,0.00